Time;durP1;ratioP1;P1;durP2;ratioP2;P2;SDS_P1;SDS_P2;PMS_P1;PMS_P2;Temp;Humidity;BMP_temperature;BMP_pressure;BME280_temperature;BME280_humidity;BME280_pressure;Samples;Min_cycle;Max_cycle;Signal;HPM_P1;HPM_P2
2022/06/11 00:01:56;;;;;;;9.50;5.55;;;;;;;17.38;67.40;100734.06;1722160;82;21322;-87
2022/06/11 00:04:34;;;;;;;11.90;4.75;;;;;;;17.33;67.00;100734.95;1721882;82;20912;-85
2022/06/11 00:07:06;;;;;;;8.70;5.10;;;;;;;17.31;67.09;100730.77;1722131;82;21299;-86
2022/06/11 00:09:34;;;;;;;11.13;4.43;;;;;;;17.30;67.15;100729.10;1722382;83;21255;-86
2022/06/11 00:12:01;;;;;;;6.10;4.17;;;;;;;17.31;67.23;100725.47;1722319;82;21405;-88
2022/06/11 00:14:30;;;;;;;10.23;4.60;;;;;;;17.32;67.23;100725.34;1722245;82;20979;-88
2022/06/11 00:16:57;;;;;;;8.45;4.97;;;;;;;17.33;67.08;100719.55;1722036;82;20915;-88
2022/06/11 00:19:24;;;;;;;9.35;4.87;;;;;;;17.32;67.20;100720.50;1722135;83;20907;-87
2022/06/11 00:21:52;;;;;;;7.92;4.00;;;;;;;17.33;67.05;100724.36;1722136;83;20872;-88
2022/06/11 00:24:19;;;;;;;9.30;4.83;;;;;;;17.32;67.02;100717.85;1722371;83;21370;-88
2022/06/11 00:26:48;;;;;;;6.00;3.98;;;;;;;17.33;67.14;100727.01;1722275;83;20924;-88
2022/06/11 00:29:16;;;;;;;5.87;4.08;;;;;;;17.32;67.29;100722.69;1722230;83;20989;-88
2022/06/11 00:31:44;;;;;;;7.92;4.83;;;;;;;17.32;67.43;100727.12;1722418;83;21428;-88
2022/06/11 00:34:11;;;;;;;7.53;4.35;;;;;;;17.28;67.55;100725.74;1722297;83;21773;-88
2022/06/11 00:36:37;;;;;;;6.47;4.53;;;;;;;17.25;67.80;100724.66;1722527;83;20860;-87
2022/06/11 00:39:06;;;;;;;7.08;4.70;;;;;;;17.22;68.09;100724.94;1722270;83;21413;-87
2022/06/11 00:41:33;;;;;;;8.68;4.45;;;;;;;17.18;68.32;100729.66;1722336;82;20942;-86
2022/06/11 00:43:59;;;;;;;6.28;4.42;;;;;;;17.15;68.48;100724.63;1695940;83;21241;-88
2022/06/11 00:46:46;;;;;;;7.60;3.98;;;;;;;17.14;68.72;100733.53;1722335;83;21421;-88
2022/06/11 00:49:51;;;;;;;7.20;4.35;;;;;;;17.13;69.00;100733.20;1722316;83;21520;-86
2022/06/11 00:52:29;;;;;;;6.05;4.10;;;;;;;17.11;69.24;100732.48;1722712;82;20891;-87
2022/06/11 00:55:25;;;;;;;11.15;3.92;;;;;;;17.09;69.21;100732.61;1722315;82;21097;-87
2022/06/11 00:58:04;;;;;;;8.78;4.17;;;;;;;17.07;69.38;100735.04;1722304;83;20971;-88
2022/06/11 01:00:38;;;;;;;8.70;4.08;;;;;;;17.07;69.41;100733.22;1722523;83;21084;-86
2022/06/11 01:03:05;;;;;;;;;;;;;;;17.05;69.66;100734.33;1724736;83;21465;-87
2022/06/11 01:05:36;;;;;;;5.83;3.98;;;;;;;17.03;69.68;100737.59;1704265;84;20101;-86
2022/06/11 01:08:24;;;;;;;7.35;3.85;;;;;;;16.98;69.74;100743.28;1704280;84;20985;-87
2022/06/11 01:11:30;;;;;;;5.28;3.92;;;;;;;16.94;69.90;100742.73;1704367;84;21028;-86
2022/06/11 01:14:16;;;;;;;;;;;;;;;16.90;70.12;100745.77;1706848;84;21172;-87
2022/06/11 01:17:07;;;;;;;6.05;3.70;;;;;;;16.86;70.21;100745.17;1703937;84;20106;-88
2022/06/11 01:20:12;;;;;;;4.83;3.83;;;;;;;16.80;70.46;100745.69;1704049;84;20964;-89
2022/06/11 01:23:07;;;;;;;8.83;4.10;;;;;;;16.76;70.71;100745.09;1703706;84;20925;-89
2022/06/11 01:25:46;;;;;;;7.75;4.62;;;;;;;16.74;70.91;100746.16;1703719;84;21055;-89
2022/06/11 01:28:47;;;;;;;7.55;4.45;;;;;;;16.74;71.09;100751.45;1704234;84;21144;-89
2022/06/11 01:31:29;;;;;;;8.80;4.08;;;;;;;16.73;71.08;100739.20;1704301;84;20961;-88
2022/06/11 01:34:18;;;;;;;5.60;3.55;;;;;;;16.67;71.54;100751.13;1681715;84;20909;-88
2022/06/11 01:36:44;;;;;;;5.30;3.87;;;;;;;16.67;71.54;100751.13;1704309;84;20985;-89
2022/06/11 01:39:34;;;;;;;7.40;3.52;;;;;;;16.63;71.62;100752.38;1696578;84;21380;-89
2022/06/11 01:42:21;;;;;;;5.70;4.15;;;;;;;16.60;71.93;100753.94;1696127;84;21172;-89
2022/06/11 01:45:12;;;;;;;7.90;3.87;;;;;;;16.56;72.01;100758.67;1681238;84;21410;-88
2022/06/11 01:47:41;;;;;;;6.28;3.85;;;;;;;16.51;72.42;100755.55;1729779;81;20952;-87
2022/06/11 01:50:08;;;;;;;6.33;4.03;;;;;;;16.52;72.72;100755.92;1690824;81;20940;-86
2022/06/11 01:52:44;;;;;;;9.28;3.98;;;;;;;16.53;72.88;100752.78;1747990;80;20909;-88
2022/06/11 01:55:39;;;;;;;8.63;4.22;;;;;;;16.53;73.01;100753.61;1741868;79;21193;-87
2022/06/11 01:58:21;;;;;;;8.23;4.10;;;;;;;16.57;73.13;100756.86;1711621;81;20946;-88
2022/06/11 02:00:59;;;;;;;7.92;4.35;;;;;;;16.60;73.06;100757.91;1710990;82;20927;-89
2022/06/11 02:03:40;;;;;;;5.53;3.17;;;;;;;16.62;72.87;100765.25;1745620;82;20925;-88
2022/06/11 02:06:33;;;;;;;8.53;4.00;;;;;;;16.64;72.76;100767.78;1709849;83;20975;-89
2022/06/11 02:09:18;;;;;;;7.42;3.87;;;;;;;16.67;72.51;100768.34;1694956;84;21312;-88
2022/06/11 02:11:48;;;;;;;7.55;4.60;;;;;;;16.71;72.31;100768.94;1745564;82;20937;-88
2022/06/11 02:14:45;;;;;;;7.42;3.50;;;;;;;16.73;72.05;100774.45;1687350;84;20904;-89
2022/06/11 02:17:17;;;;;;;8.13;4.10;;;;;;;16.77;72.04;100776.38;1709406;84;20940;-88
2022/06/11 02:19:57;;;;;;;4.55;3.80;;;;;;;16.79;72.03;100771.80;1745152;82;20976;-86
2022/06/11 02:22:29;;;;;;;8.25;3.77;;;;;;;16.82;71.93;100772.05;1709227;83;21988;-86
2022/06/11 02:25:07;;;;;;;11.18;3.35;;;;;;;16.82;71.83;100771.56;1709239;84;20936;-87
2022/06/11 02:27:36;;;;;;;11.45;4.22;;;;;;;16.83;71.70;100767.96;1745096;81;21481;-87
2022/06/11 02:30:04;;;;;;;7.80;4.47;;;;;;;16.84;71.82;100776.25;1710675;83;20897;-86
2022/06/11 02:32:32;;;;;;;6.78;4.08;;;;;;;16.85;71.74;100781.92;1745721;82;20869;-87
2022/06/11 02:35:03;;;;;;;11.10;3.87;;;;;;;16.84;71.71;100788.66;1745584;82;21847;-87
2022/06/11 02:37:37;;;;;;;6.70;4.17;;;;;;;16.84;71.49;100791.30;1709578;82;20924;-86
2022/06/11 02:40:08;;;;;;;;;;;;;;;16.84;71.50;100793.95;1719494;83;20895;-87
2022/06/11 02:42:34;;;;;;;11.85;5.10;;;;;;;16.84;71.64;100788.16;1701271;84;20110;-86
2022/06/11 02:45:01;;;;;;;4.62;4.17;;;;;;;16.88;71.67;100779.00;1708993;84;20944;-88
2022/06/11 02:47:28;;;;;;;9.38;4.83;;;;;;;16.91;71.72;100789.33;1709045;83;21788;-88
2022/06/11 02:49:54;;;;;;;9.15;5.22;;;;;;;16.97;71.91;100795.93;1709005;83;20949;-87
2022/06/11 02:52:24;;;;;;;14.98;6.47;;;;;;;17.04;71.87;100789.63;1708776;83;21403;-88
2022/06/11 02:54:51;;;;;;;13.38;5.10;;;;;;;17.11;72.04;100793.44;1708824;84;21367;-88
2022/06/11 02:57:22;;;;;;;12.18;4.35;;;;;;;17.17;72.00;100788.95;1708817;84;20897;-87
2022/06/11 02:59:49;;;;;;;17.20;5.03;;;;;;;17.20;71.73;100784.20;1708880;84;21345;-88
2022/06/11 03:02:16;;;;;;;11.63;4.33;;;;;;;17.22;71.74;100788.05;1708866;84;20992;-88
2022/06/11 03:04:44;;;;;;;8.60;4.85;;;;;;;17.23;71.72;100785.78;1708947;84;20968;-87
2022/06/11 03:07:10;;;;;;;9.08;4.97;;;;;;;17.25;71.75;100784.30;1708791;83;20909;-87
2022/06/11 03:09:38;;;;;;;8.93;4.50;;;;;;;17.26;71.94;100782.02;1709087;83;20941;-88
2022/06/11 03:12:05;;;;;;;7.15;4.47;;;;;;;17.28;72.13;100784.89;1708897;83;22042;-87
2022/06/11 03:14:32;;;;;;;6.15;4.25;;;;;;;17.30;72.20;100779.47;1708872;84;20928;-88
2022/06/11 03:17:00;;;;;;;11.15;5.08;;;;;;;17.32;72.38;100785.45;1708908;83;20956;-88
2022/06/11 03:19:26;;;;;;;10.40;5.00;;;;;;;17.33;72.40;100785.33;1708866;83;20937;-88
2022/06/11 03:21:54;;;;;;;6.75;4.90;;;;;;;17.37;72.10;100785.91;1708927;84;21059;-88
2022/06/11 03:24:23;;;;;;;18.75;6.75;;;;;;;17.42;72.00;100793.47;1708831;84;21872;-87
2022/06/11 03:26:50;;;;;;;5.72;4.72;;;;;;;17.47;71.98;100794.73;1708664;83;21008;-87
2022/06/11 03:29:16;;;;;;;12.78;4.97;;;;;;;17.53;72.16;100795.54;1708993;83;20973;-87
2022/06/11 03:31:45;;;;;;;13.03;5.65;;;;;;;17.58;72.40;100792.48;1708928;84;21019;-87
2022/06/11 03:34:11;;;;;;;12.90;5.67;;;;;;;17.66;72.74;100791.83;1708985;84;20925;-87
2022/06/11 03:36:39;;;;;;;15.63;5.60;;;;;;;17.73;72.74;100796.45;1708829;83;21152;-86
2022/06/11 03:39:07;;;;;;;12.88;5.95;;;;;;;17.80;72.83;100792.28;1704593;84;20937;-87
2022/06/11 03:41:34;;;;;;;14.93;5.62;;;;;;;17.87;72.81;100795.27;1701574;84;21020;-87
2022/06/11 03:44:01;;;;;;;16.80;6.17;;;;;;;17.95;72.78;100800.75;1701346;84;21002;-86
2022/06/11 03:46:29;;;;;;;12.90;5.87;;;;;;;18.04;72.77;100791.63;1701538;84;20989;-86
2022/06/11 03:48:55;;;;;;;9.38;5.00;;;;;;;18.13;72.67;100796.95;1701629;84;21238;-87
2022/06/11 03:51:22;;;;;;;17.75;6.03;;;;;;;18.22;72.54;100788.66;1701598;84;20874;-87
2022/06/11 03:53:50;;;;;;;9.85;5.95;;;;;;;18.33;72.53;100793.84;1701852;84;20953;-86
2022/06/11 03:56:17;;;;;;;12.33;5.42;;;;;;;18.46;72.45;100791.41;1701199;83;20913;-88
2022/06/11 03:58:46;;;;;;;11.28;5.80;;;;;;;18.58;72.45;100791.12;1701206;84;20948;-87
2022/06/11 04:01:16;;;;;;;18.17;6.90;;;;;;;18.72;72.29;100789.87;1701397;84;21258;-88
2022/06/11 04:03:50;;;;;;;19.90;6.75;;;;;;;18.87;72.25;100785.48;1701323;84;20929;-89
2022/06/11 04:06:22;;;;;;;17.50;7.10;;;;;;;19.01;72.08;100783.23;1701385;83;21371;-88
2022/06/11 04:08:49;;;;;;;17.45;7.20;;;;;;;19.21;71.85;100788.51;1701342;84;20906;-88
2022/06/11 04:11:16;;;;;;;16.37;7.87;;;;;;;19.51;71.98;100791.90;1701380;84;21008;-87
2022/06/11 04:13:43;;;;;;;13.60;7.80;;;;;;;19.99;71.42;100792.20;1701453;84;21152;-87
2022/06/11 04:16:28;;;;;;;15.23;7.60;;;;;;;20.64;70.29;100792.87;1701149;84;20936;-87
2022/06/11 04:18:59;;;;;;;;;;;;;;;21.38;68.88;100792.55;1701221;83;21063;-88
2022/06/11 04:21:26;;;;;;;18.92;8.95;;;;;;;22.20;66.67;100794.25;1701474;84;20086;-88
2022/06/11 04:23:55;;;;;;;20.05;10.82;;;;;;;22.91;64.66;100786.97;1702094;83;20961;-87
2022/06/11 04:26:34;;;;;;;20.25;10.70;;;;;;;23.62;62.75;100787.68;1701657;83;21146;-87
2022/06/11 04:29:04;;;;;;;19.45;9.43;;;;;;;24.27;60.46;100787.36;1701439;84;20945;-87
2022/06/11 04:31:31;;;;;;;23.22;11.15;;;;;;;24.94;58.44;100789.87;1701340;84;20913;-88
2022/06/11 04:33:59;;;;;;;19.32;10.55;;;;;;;25.54;56.74;100786.75;1701166;84;21000;-89
2022/06/11 04:36:27;;;;;;;24.63;11.85;;;;;;;26.05;55.21;100793.52;1701499;84;21411;-86
2022/06/11 04:38:55;;;;;;;27.13;11.65;;;;;;;26.49;54.18;100794.39;1704001;84;21785;-87
2022/06/11 04:41:21;;;;;;;20.08;10.80;;;;;;;26.90;53.12;100790.52;1709107;84;20892;-88
2022/06/11 04:43:49;;;;;;;20.92;10.53;;;;;;;27.32;51.63;100779.34;1709231;84;20984;-88
2022/06/11 04:46:20;;;;;;;26.23;12.45;;;;;;;27.75;50.70;100786.38;1709460;83;20906;-90
2022/06/11 04:48:48;;;;;;;19.42;12.28;;;;;;;28.14;49.59;100790.30;1709347;83;20984;-88
2022/06/11 04:51:14;;;;;;;21.40;11.55;;;;;;;28.43;48.18;100788.58;1709659;84;21457;-85
2022/06/11 04:53:44;;;;;;;23.67;13.25;;;;;;;28.69;47.21;100792.38;1709743;84;20904;-86
2022/06/11 04:56:13;;;;;;;19.25;10.78;;;;;;;28.92;46.66;100791.41;1709366;84;20897;-85
2022/06/11 04:58:40;;;;;;;27.50;13.83;;;;;;;29.19;46.30;100794.11;1709281;84;20945;-87
2022/06/11 05:01:07;;;;;;;17.87;10.28;;;;;;;29.49;45.67;100787.71;1709154;83;21402;-88
2022/06/11 05:03:34;;;;;;;29.57;11.38;;;;;;;29.79;44.51;100795.31;1709003;83;21784;-87
2022/06/11 05:06:01;;;;;;;21.55;11.22;;;;;;;30.08;43.78;100795.30;1708910;84;20945;-88
2022/06/11 05:08:27;;;;;;;21.10;9.80;;;;;;;30.31;42.80;100798.00;1708989;83;21489;-88
2022/06/11 05:10:54;;;;;;;18.67;9.73;;;;;;;30.47;41.51;100794.75;1709291;84;21418;-86
2022/06/11 05:13:22;;;;;;;16.80;9.73;;;;;;;30.69;41.02;100793.86;1708911;83;21344;-88
2022/06/11 05:15:51;;;;;;;17.35;7.97;;;;;;;30.93;39.91;100795.47;1709184;84;21158;-87
2022/06/11 05:18:18;;;;;;;13.08;6.47;;;;;;;31.09;39.32;100799.48;1708844;84;20869;-88
2022/06/11 05:20:45;;;;;;;13.65;6.15;;;;;;;31.34;38.42;100803.48;1709141;83;20941;-88
2022/06/11 05:23:12;;;;;;;16.05;6.08;;;;;;;31.63;37.42;100797.04;1709429;83;20905;-88
2022/06/11 05:25:39;;;;;;;14.73;5.75;;;;;;;31.92;36.05;100806.27;1709530;84;20952;-89
2022/06/11 05:28:07;;;;;;;9.65;3.90;;;;;;;32.19;35.25;100803.53;1709373;83;21345;-88
2022/06/11 05:30:34;;;;;;;9.78;4.25;;;;;;;32.44;34.70;100799.81;1709596;84;21000;-89
2022/06/11 05:33:01;;;;;;;6.53;3.47;;;;;;;32.68;34.07;100812.91;1709332;83;20905;-87
2022/06/11 05:35:30;;;;;;;10.78;3.90;;;;;;;32.92;33.77;100806.16;1709893;84;20917;-87
2022/06/11 05:37:58;;;;;;;8.35;3.95;;;;;;;33.08;32.88;100812.26;1709376;83;21365;-89
2022/06/11 05:40:29;;;;;;;9.55;4.25;;;;;;;33.16;32.52;100809.19;1702765;83;21422;-88
2022/06/11 05:42:55;;;;;;;9.40;4.47;;;;;;;33.18;32.41;100812.50;1701669;83;21435;-89
2022/06/11 05:45:29;;;;;;;9.43;3.70;;;;;;;33.28;32.16;100811.07;1701787;84;20893;-89
2022/06/11 05:47:56;;;;;;;14.63;8.28;;;;;;;33.40;32.30;100816.80;1701777;84;21001;-88
2022/06/11 05:50:27;;;;;;;8.00;3.22;;;;;;;33.60;32.11;100814.25;1702685;83;20969;-87
2022/06/11 05:52:55;;;;;;;13.07;4.13;;;;;;;33.72;32.58;100819.11;1704213;79;21171;-88
2022/06/11 05:55:25;;;;;;;9.58;4.15;;;;;;;34.00;32.48;100817.49;1703764;79;20925;-91
2022/06/11 05:57:53;;;;;;;21.52;5.40;;;;;;;34.33;32.49;100820.86;1703466;79;20853;-88
2022/06/11 06:00:22;;;;;;;11.80;5.40;;;;;;;34.61;31.06;100815.05;1703714;81;21367;-88
2022/06/11 06:02:48;;;;;;;7.70;3.58;;;;;;;34.81;29.83;100813.22;1703810;79;21039;-88
2022/06/11 06:05:21;;;;;;;8.20;4.40;;;;;;;34.92;29.79;100816.39;1683498;79;21130;-88
2022/06/11 06:07:49;;;;;;;7.42;4.50;;;;;;;35.13;29.94;100812.11;1703346;79;20890;-89
2022/06/11 06:10:15;;;;;;;11.25;4.00;;;;;;;35.29;29.17;100816.69;1703625;79;20921;-91
2022/06/11 06:12:42;;;;;;;12.93;5.40;;;;;;;35.35;29.26;100813.50;1703599;79;20874;-89
2022/06/11 06:15:21;;;;;;;16.65;4.70;;;;;;;35.52;29.09;100813.98;1703694;79;20996;-89
2022/06/11 06:17:50;;;;;;;7.70;4.05;;;;;;;35.64;28.73;100807.87;1703645;79;20996;-91
2022/06/11 06:20:17;;;;;;;10.43;4.58;;;;;;;35.79;28.35;100802.59;1703522;79;20889;-88
2022/06/11 06:22:43;;;;;;;12.03;5.00;;;;;;;36.07;28.68;100804.81;1703636;79;20925;-89
2022/06/11 06:25:14;;;;;;;9.73;4.83;;;;;;;36.33;28.18;100808.65;1683525;83;21000;-88
2022/06/11 06:27:41;;;;;;;13.50;5.33;;;;;;;36.59;28.18;100808.30;1703710;79;20996;-89
2022/06/11 06:30:08;;;;;;;11.85;6.33;;;;;;;36.89;27.56;100811.84;1703595;79;21099;-87
2022/06/11 06:32:35;;;;;;;15.58;4.72;;;;;;;37.18;27.24;100814.80;1703826;79;20917;-89
2022/06/11 06:35:02;;;;;;;10.50;4.20;;;;;;;37.41;26.58;100813.53;1703592;79;21213;-89
2022/06/11 06:37:28;;;;;;;10.63;3.85;;;;;;;37.64;26.28;100811.75;1703877;79;20954;-87
2022/06/11 06:39:55;;;;;;;9.78;3.15;;;;;;;37.86;25.88;100815.63;1703425;79;20949;-88
2022/06/11 06:42:21;;;;;;;8.58;3.50;;;;;;;38.06;24.63;100810.77;1703797;81;21198;-88
2022/06/11 06:44:48;;;;;;;10.20;3.25;;;;;;;38.27;23.92;100815.74;1703850;79;20876;-89
2022/06/11 06:47:15;;;;;;;8.48;3.17;;;;;;;38.45;22.86;100813.56;1703748;80;20969;-88
2022/06/11 06:49:41;;;;;;;11.83;3.30;;;;;;;38.60;23.30;100813.59;1703831;81;20898;-85
2022/06/11 06:52:07;;;;;;;11.30;4.20;;;;;;;38.77;22.92;100814.10;1703918;79;20941;-87
2022/06/11 06:54:35;;;;;;;7.75;3.55;;;;;;;38.89;22.29;100808.34;1703903;79;20961;-88
2022/06/11 06:57:03;;;;;;;6.58;3.58;;;;;;;38.93;22.52;100816.33;1703166;81;20889;-89
2022/06/11 06:59:29;;;;;;;5.28;1.75;;;;;;;39.02;22.86;100814.37;1701397;84;21351;-89
2022/06/11 07:01:58;;;;;;;4.65;3.02;;;;;;;39.16;20.69;100811.33;1701346;84;20909;-87
2022/06/11 07:04:24;;;;;;;5.28;2.50;;;;;;;39.29;18.84;100812.66;1701272;84;20956;-86
2022/06/11 07:06:51;;;;;;;4.95;2.25;;;;;;;39.33;19.63;100818.69;1701467;84;21107;-89
2022/06/11 07:09:18;;;;;;;7.05;3.00;;;;;;;39.43;18.96;100817.84;1701769;83;20977;-89
2022/06/11 07:11:44;;;;;;;7.47;3.47;;;;;;;39.43;18.56;100812.35;1702559;83;20965;-87
2022/06/11 07:14:11;;;;;;;9.35;2.98;;;;;;;39.47;18.92;100818.11;1701999;84;20913;-88
2022/06/11 07:16:42;;;;;;;7.28;2.17;;;;;;;39.47;18.37;100810.70;1701757;83;21155;-87
2022/06/11 07:19:14;;;;;;;5.72;1.90;;;;;;;39.52;17.63;100820.83;1701765;83;22333;-88
2022/06/11 07:21:44;;;;;;;4.60;2.10;;;;;;;39.55;16.52;100822.44;1701214;83;20866;-88
2022/06/11 07:24:18;;;;;;;6.12;1.80;;;;;;;39.37;18.04;100823.86;1701399;84;20945;-88
2022/06/11 07:26:49;;;;;;;7.00;2.62;;;;;;;39.33;19.13;100815.09;1701286;84;21056;-87
2022/06/11 07:29:24;;;;;;;7.50;3.50;;;;;;;39.50;19.87;100816.98;1701405;83;21360;-89
2022/06/11 07:31:51;;;;;;;12.45;3.58;;;;;;;39.69;20.38;100819.92;1701312;83;21096;-88
2022/06/11 07:34:19;;;;;;;10.05;2.98;;;;;;;39.84;20.37;100809.42;1701292;84;20938;-87
2022/06/11 07:36:47;;;;;;;11.68;4.28;;;;;;;40.01;21.15;100817.29;1701282;84;20945;-87
2022/06/11 07:39:15;;;;;;;11.22;2.90;;;;;;;40.15;20.57;100813.34;1702077;84;20909;-86
2022/06/11 07:41:42;;;;;;;8.10;3.15;;;;;;;40.20;18.17;100807.83;1709203;84;20956;-89
2022/06/11 07:44:09;;;;;;;9.95;4.42;;;;;;;40.18;17.11;100797.11;1709378;84;21365;-87
2022/06/11 07:46:35;;;;;;;7.62;4.45;;;;;;;40.19;18.40;100806.17;1709173;84;20964;-88
2022/06/11 07:49:01;;;;;;;10.65;4.20;;;;;;;40.20;19.96;100805.89;1709589;83;21383;-88
2022/06/11 07:51:28;;;;;;;10.55;4.37;;;;;;;40.17;19.99;100807.83;1709209;84;20941;-88
2022/06/11 07:54:38;;;;;;;15.38;11.97;;;;;;;40.17;20.25;100792.70;1798839;79;23262;-88
2022/06/11 07:57:05;;;;;;;11.53;6.83;;;;;;;40.13;20.71;100804.03;1758750;81;20904;-88
2022/06/11 07:59:32;;;;;;;7.92;6.70;;;;;;;40.23;19.44;100803.13;1758599;81;21907;-88
2022/06/11 08:01:59;;;;;;;9.08;5.30;;;;;;;40.29;19.53;100797.89;1758661;81;20919;-89
2022/06/11 08:04:26;;;;;;;9.43;4.97;;;;;;;40.34;19.98;100799.22;1758656;80;20873;-88
2022/06/11 08:06:53;;;;;;;8.33;4.25;;;;;;;40.44;20.15;100798.30;1758842;80;20900;-87
2022/06/11 08:09:21;;;;;;;10.53;4.65;;;;;;;40.50;19.78;100801.83;1758768;80;20936;-88
2022/06/11 08:11:47;;;;;;;11.63;4.85;;;;;;;40.50;19.15;100790.84;1759263;81;21221;-88
2022/06/11 08:14:14;;;;;;;12.60;4.70;;;;;;;40.47;19.44;100796.36;1758752;81;20912;-90
2022/06/11 08:16:42;;;;;;;8.30;5.97;;;;;;;40.48;18.79;100806.23;1758631;81;21476;-89
2022/06/11 08:19:10;;;;;;;10.88;7.55;;;;;;;40.46;16.83;100796.08;1758900;81;20940;-87
2022/06/11 08:21:36;;;;;;;9.55;6.33;;;;;;;40.52;17.17;100799.62;1758890;81;21007;-85
2022/06/11 08:24:03;;;;;;;9.18;5.10;;;;;;;40.54;17.19;100791.91;1758784;81;21448;-87
2022/06/11 08:26:32;;;;;;;11.88;5.30;;;;;;;40.55;17.29;100789.41;1758952;81;21002;-88
2022/06/11 08:29:03;;;;;;;6.58;4.03;;;;;;;40.64;18.07;100793.73;1759973;81;20924;-90
2022/06/11 08:31:29;;;;;;;10.03;7.00;;;;;;;40.71;18.28;100784.61;1759559;80;21413;-90
2022/06/11 08:33:56;;;;;;;14.73;11.80;;;;;;;40.73;17.91;100781.83;1759021;80;20920;-92
2022/06/11 08:36:22;;;;;;;12.35;10.90;;;;;;;40.67;17.04;100781.60;1759070;81;21292;-89
2022/06/11 08:38:50;;;;;;;13.48;11.80;;;;;;;40.67;15.27;100782.98;1758714;81;20987;-89
2022/06/11 08:41:20;;;;;;;15.03;10.63;;;;;;;40.64;15.46;100784.91;1758905;81;20908;-88
2022/06/11 08:44:02;;;;;;;10.60;9.50;;;;;;;40.58;15.09;100784.72;1758890;81;20999;-88
2022/06/11 08:46:33;;;;;;;12.25;9.78;;;;;;;40.52;15.21;100777.62;1740172;81;20974;-88
2022/06/11 08:49:20;;;;;;;11.73;10.48;;;;;;;40.51;15.48;100780.94;1759217;81;21253;-89
2022/06/11 08:52:13;;;;;;;11.95;8.85;;;;;;;40.54;14.64;100778.97;1759032;81;20924;-89
2022/06/11 08:54:44;;;;;;;13.50;10.48;;;;;;;40.48;15.11;100771.88;1747075;81;20930;-88
2022/06/11 08:57:45;;;;;;;17.67;11.38;;;;;;;40.45;14.28;100776.59;1745978;82;20987;-89
2022/06/11 09:00:37;;;;;;;12.90;9.53;;;;;;;40.37;14.98;100771.70;1746516;81;20945;-89
2022/06/11 09:03:34;;;;;;;11.08;8.48;;;;;;;40.30;14.60;100768.47;1746277;81;21204;-88
2022/06/11 09:06:21;;;;;;;12.63;7.50;;;;;;;40.26;14.69;100754.44;1745794;81;20889;-87
2022/06/11 09:09:20;;;;;;;11.08;7.08;;;;;;;40.24;15.04;100753.91;1745632;81;21299;-87
2022/06/11 09:12:11;;;;;;;8.40;7.30;;;;;;;40.29;15.10;100758.57;1745534;81;21104;-85
2022/06/11 09:15:00;;;;;;;11.53;6.92;;;;;;;40.35;15.48;100754.67;1710083;83;20944;-89
2022/06/11 09:17:32;;;;;;;10.80;5.95;;;;;;;40.38;14.38;100756.86;1711849;81;21125;-87
2022/06/11 09:20:14;;;;;;;12.73;6.62;;;;;;;40.26;14.78;100747.57;1712219;81;20959;-85
2022/06/11 09:23:15;;;;;;;9.83;5.40;;;;;;;40.27;15.27;100746.52;1712300;81;20928;-87
2022/06/11 09:25:56;;;;;;;10.32;6.42;;;;;;;40.41;15.56;100745.28;1731958;79;20968;-86
2022/06/11 09:28:39;;;;;;;10.38;5.00;;;;;;;40.56;14.82;100749.82;1747963;79;20944;-85
2022/06/11 09:31:34;;;;;;;9.70;6.45;;;;;;;40.50;14.54;100742.16;1747678;79;21075;-86
2022/06/11 09:34:22;;;;;;;9.95;6.20;;;;;;;40.53;15.51;100749.01;1747652;79;20968;-87
2022/06/11 09:37:14;;;;;;;8.13;6.22;;;;;;;40.65;14.82;100743.13;1747842;80;20936;-86
2022/06/11 09:39:51;;;;;;;10.43;6.75;;;;;;;40.72;14.63;100748.57;1748115;79;20940;-87
2022/06/11 09:42:35;;;;;;;8.40;6.97;;;;;;;40.72;14.01;100740.88;1747919;79;20897;-87
2022/06/11 09:45:14;;;;;;;14.30;7.42;;;;;;;40.63;14.60;100739.85;1710449;84;21152;-86
2022/06/11 09:48:04;;;;;;;9.18;7.00;;;;;;;40.66;15.21;100741.45;1710476;82;20952;-87
2022/06/11 09:50:52;;;;;;;10.78;7.55;;;;;;;40.71;15.29;100736.48;1710553;83;20892;-87
2022/06/11 09:53:48;;;;;;;9.30;7.60;;;;;;;40.67;15.76;100736.80;1750220;81;20904;-87
2022/06/11 09:56:29;;;;;;;10.28;6.92;;;;;;;40.74;15.86;100736.72;1737148;81;20885;-88
2022/06/11 09:59:35;;;;;;;12.33;6.83;;;;;;;40.75;14.79;100734.22;1760053;81;22194;-87
2022/06/11 10:02:17;;;;;;;11.57;7.00;;;;;;;40.80;15.34;100728.69;1760307;81;20991;-89
2022/06/11 10:04:42;;;;;;;8.35;6.53;;;;;;;40.89;15.58;100733.52;1723516;83;20919;-86
2022/06/11 10:07:19;;;;;;;9.35;6.50;;;;;;;40.79;14.72;100733.91;1724390;83;20952;-86
2022/06/11 10:10:16;;;;;;;10.68;7.83;;;;;;;40.64;14.79;100735.42;1724860;83;20953;-87
2022/06/11 10:12:56;;;;;;;11.48;6.95;;;;;;;40.44;14.31;100730.95;1722163;83;21334;-85
2022/06/11 10:15:36;;;;;;;11.97;7.72;;;;;;;40.33;14.73;100732.16;1722095;82;20959;-85
2022/06/11 10:18:13;;;;;;;10.93;8.43;;;;;;;40.28;15.32;100723.97;1722048;83;20906;-85
2022/06/11 10:21:04;;;;;;;9.88;8.23;;;;;;;40.32;15.61;100723.66;1722010;83;21001;-85
2022/06/11 10:23:42;;;;;;;11.28;8.25;;;;;;;40.38;14.98;100728.00;1722326;83;20912;-85
2022/06/11 10:26:29;;;;;;;16.42;7.60;;;;;;;40.26;14.64;100720.09;1695726;83;21165;-87
2022/06/11 10:29:27;;;;;;;8.05;6.83;;;;;;;40.17;14.55;100721.27;1721972;82;20888;-86
2022/06/11 10:32:14;;;;;;;13.00;7.58;;;;;;;40.18;14.25;100717.98;1722050;82;21460;-86
2022/06/11 10:34:46;;;;;;;12.07;7.67;;;;;;;40.28;14.96;100721.22;1722219;83;20978;-88
2022/06/11 10:37:35;;;;;;;18.57;8.50;;;;;;;40.32;14.53;100713.47;1721888;83;21468;-86
2022/06/11 10:40:21;;;;;;;10.00;7.45;;;;;;;40.32;14.50;100714.04;1722356;83;21165;-86
2022/06/11 10:42:57;;;;;;;10.05;7.97;;;;;;;40.29;14.31;100711.84;1722078;82;20908;-86
2022/06/11 10:45:26;;;;;;;10.43;8.30;;;;;;;40.29;14.36;100718.72;1722042;83;20915;-86
2022/06/11 10:47:56;;;;;;;10.50;8.00;;;;;;;40.30;14.56;100719.00;1721999;83;20907;-86
2022/06/11 10:50:34;;;;;;;12.28;8.78;;;;;;;40.25;14.57;100713.53;1695739;83;20987;-84
2022/06/11 10:53:27;;;;;;;9.73;7.75;;;;;;;40.23;14.42;100713.00;1722090;83;21146;-87
2022/06/11 10:56:18;;;;;;;11.10;7.65;;;;;;;40.22;14.76;100719.59;1722125;83;20947;-86
2022/06/11 10:58:58;;;;;;;10.98;8.85;;;;;;;40.15;14.39;100711.67;1721852;82;20919;-85
2022/06/11 11:01:34;;;;;;;11.88;8.43;;;;;;;40.04;13.56;100709.56;1695695;83;20958;-84
2022/06/11 11:04:30;;;;;;;10.28;7.78;;;;;;;39.92;14.27;100714.06;1722159;83;20947;-85
2022/06/11 11:07:16;;;;;;;8.50;7.28;;;;;;;40.01;14.73;100710.71;1722055;83;21243;-84
2022/06/11 11:09:43;;;;;;;11.83;7.65;;;;;;;40.08;14.90;100709.26;1722100;83;20912;-85
2022/06/11 11:12:29;;;;;;;8.35;6.58;;;;;;;40.10;14.97;100710.35;1722000;83;20986;-86
2022/06/11 11:15:03;;;;;;;10.30;7.35;;;;;;;39.89;14.81;100705.03;1721870;83;20915;-86
2022/06/11 11:17:32;;;;;;;7.60;6.87;;;;;;;39.66;14.45;100705.71;1720502;83;20995;-86
2022/06/11 11:20:30;;;;;;;8.20;5.85;;;;;;;39.47;14.88;100705.02;1722035;83;21264;-87
2022/06/11 11:23:08;;;;;;;6.80;5.58;;;;;;;39.31;14.07;100701.52;1676017;85;20939;-86
2022/06/11 11:25:48;;;;;;;9.18;6.87;;;;;;;39.03;14.04;100699.45;1654980;84;21518;-84
2022/06/11 11:28:32;;;;;;;10.68;6.97;;;;;;;38.80;15.09;100692.62;1676302;85;21474;-86
2022/06/11 11:31:07;;;;;;;8.18;6.30;;;;;;;38.43;15.48;100693.80;1676450;85;21080;-88
2022/06/11 11:33:36;;;;;;;10.30;6.85;;;;;;;38.03;16.18;100681.78;1712445;82;21544;-86
2022/06/11 11:36:19;;;;;;;8.20;6.85;;;;;;;37.73;16.24;100674.63;1712796;83;20999;-86
2022/06/11 11:39:13;;;;;;;7.58;6.20;;;;;;;37.40;17.04;100673.17;1712898;83;20948;-86
2022/06/11 11:42:02;;;;;;;9.30;6.20;;;;;;;37.07;17.15;100677.14;1713014;83;20976;-85
2022/06/11 11:44:37;;;;;;;8.15;6.00;;;;;;;36.79;17.04;100681.92;1713340;83;21662;-88
2022/06/11 11:47:12;;;;;;;7.70;5.92;;;;;;;36.51;17.33;100677.66;1712692;82;21266;-86
2022/06/11 11:49:39;;;;;;;6.80;5.65;;;;;;;36.24;17.51;100669.53;1712921;83;20979;-83
2022/06/11 11:52:15;;;;;;;7.55;5.40;;;;;;;35.98;17.46;100670.67;1713550;83;20944;-85
2022/06/11 11:55:05;;;;;;;5.65;5.05;;;;;;;35.67;17.33;100664.94;1702285;83;20967;-86